Time;durP1;ratioP1;P1;durP2;ratioP2;P2;SDS_P1;SDS_P2;PMS_P1;PMS_P2;Temp;Humidity;BMP_temperature;BMP_pressure;BME280_temperature;BME280_humidity;BME280_pressure;Samples;Min_cycle;Max_cycle;Signal;HPM_P1;HPM_P2
2023/09/01 00:02:19;;;;;;;6.00;4.13;;;;;;;20.42;70.14;100847.69;5129403;28;20043;-80
2023/09/01 00:05:19;;;;;;;7.32;4.22;;;;;;;20.41;70.64;100843.38;5127540;28;20101;-80
2023/09/01 00:08:14;;;;;;;6.43;4.72;;;;;;;20.70;68.71;100846.41;5130463;28;20053;-80
2023/09/01 00:11:09;;;;;;;6.53;3.72;;;;;;;20.96;67.28;100849.00;5127583;28;20054;-80
2023/09/01 00:14:01;;;;;;;6.50;3.78;;;;;;;20.83;67.15;100847.69;5127920;28;20042;-79
2023/09/01 00:16:53;;;;;;;9.35;5.00;;;;;;;20.46;69.10;100845.78;5126758;28;20051;-80
2023/09/01 00:19:48;;;;;;;9.30;4.63;;;;;;;20.46;68.83;100854.06;5112347;28;20109;-80
2023/09/01 00:22:43;;;;;;;8.57;4.95;;;;;;;20.51;68.61;100861.22;5115340;28;20047;-80
2023/09/01 00:25:37;;;;;;;10.55;4.60;;;;;;;20.30;69.75;100849.91;5126261;28;20046;-80
2023/09/01 00:28:32;;;;;;;8.50;4.40;;;;;;;20.26;70.24;100852.63;5126581;28;20046;-80
2023/09/01 00:31:26;;;;;;;7.28;4.15;;;;;;;20.65;68.47;100857.81;5126520;28;20047;-80
2023/09/01 00:34:20;;;;;;;12.43;3.97;;;;;;;20.74;67.65;100847.22;5126337;28;20050;-80
2023/09/01 00:37:12;;;;;;;8.13;4.85;;;;;;;20.85;67.40;100850.88;5116881;28;20047;-80
2023/09/01 00:40:07;;;;;;;7.68;4.85;;;;;;;20.87;66.62;100857.63;5126954;28;20049;-82
2023/09/01 00:43:01;;;;;;;10.35;4.22;;;;;;;20.82;66.98;100852.47;5127677;28;20046;-80
2023/09/01 00:45:56;;;;;;;12.25;5.18;;;;;;;20.70;67.75;100843.63;5129306;28;20046;-79
2023/09/01 00:48:48;;;;;;;7.18;4.38;;;;;;;20.73;67.87;100851.16;5126489;28;20046;-80
2023/09/01 00:51:41;;;;;;;9.65;4.90;;;;;;;20.75;67.45;100857.91;5125420;28;20050;-80
2023/09/01 00:54:36;;;;;;;12.55;4.57;;;;;;;20.65;68.10;100855.84;5123651;28;20038;-80
2023/09/01 00:57:30;;;;;;;6.95;4.95;;;;;;;20.45;69.25;100852.47;5123860;28;20050;-80
2023/09/01 01:00:25;;;;;;;7.18;4.75;;;;;;;20.70;68.38;100861.03;5128841;28;20047;-80
2023/09/01 01:03:20;;;;;;;8.70;4.78;;;;;;;20.42;69.48;100857.94;5113662;28;20059;-80
2023/09/01 01:06:38;;;;;;;5.90;5.07;;;;;;;20.70;67.77;100868.50;5107100;28;20043;-80
2023/09/01 01:09:48;;;;;;;8.77;5.00;;;;;;;20.67;67.66;100863.75;5125630;28;20058;-81
2023/09/01 01:13:06;;;;;;;6.95;4.68;;;;;;;20.52;69.07;100868.31;5130953;28;20039;-81
2023/09/01 01:15:59;;;;;;;8.10;5.10;;;;;;;19.97;71.07;100853.44;5126550;28;20045;-80
2023/09/01 01:18:57;;;;;;;13.77;5.43;;;;;;;20.09;70.96;100850.44;5126397;28;20043;-81
2023/09/01 01:21:56;;;;;;;12.25;5.57;;;;;;;19.59;72.86;100855.31;5126201;28;20051;-81
2023/09/01 01:24:49;;;;;;;11.07;5.70;;;;;;;20.12;70.84;100852.44;5132335;28;20521;-81
2023/09/01 01:27:44;;;;;;;8.38;6.05;;;;;;;20.00;71.29;100852.72;5127355;28;20051;-81
2023/09/01 01:30:39;;;;;;;13.50;5.90;;;;;;;20.11;70.15;100859.16;5126524;28;20047;-79
2023/09/01 01:33:44;;;;;;;11.32;4.40;;;;;;;20.08;71.54;100854.38;5131064;28;20046;-79
2023/09/01 01:36:52;;;;;;;8.55;5.45;;;;;;;19.83;72.01;100850.50;5128765;28;20038;-80
2023/09/01 01:39:47;;;;;;;15.60;6.38;;;;;;;19.41;73.25;100859.75;5127336;28;20046;-79
2023/09/01 01:42:43;;;;;;;10.88;5.88;;;;;;;19.36;74.26;100849.03;5128974;28;20039;-79
2023/09/01 01:45:41;;;;;;;13.48;6.53;;;;;;;19.73;72.34;100854.72;5127461;28;20050;-79
2023/09/01 01:48:42;;;;;;;13.40;5.00;;;;;;;19.89;71.53;100860.06;5127337;28;20043;-80
2023/09/01 01:51:34;;;;;;;15.68;5.95;;;;;;;19.76;72.08;100856.72;5126896;28;20050;-80
2023/09/01 01:54:28;;;;;;;11.75;6.00;;;;;;;19.77;72.37;100863.03;5128014;28;20047;-79
2023/09/01 01:57:23;;;;;;;19.13;5.13;;;;;;;19.89;71.73;100871.09;5115384;28;20058;-80
2023/09/01 02:00:16;;;;;;;23.58;5.47;;;;;;;20.07;70.10;100872.91;5133333;28;20222;-80
2023/09/01 02:03:06;;;;;;;36.15;6.30;;;;;;;19.95;70.79;100866.84;5132078;28;20051;-80
2023/09/01 02:06:01;;;;;;;15.07;5.30;;;;;;;19.93;70.65;100871.94;5131573;28;20047;-80
2023/09/01 02:08:56;;;;;;;8.80;4.38;;;;;;;19.91;71.01;100868.78;5131250;28;20047;-80
2023/09/01 02:11:51;;;;;;;10.73;4.82;;;;;;;19.91;70.35;100860.50;5131550;28;20046;-80
2023/09/01 02:14:43;;;;;;;9.90;4.60;;;;;;;19.86;70.56;100867.09;5134814;28;20058;-80
2023/09/01 02:17:39;;;;;;;10.68;4.78;;;;;;;19.94;70.30;100874.34;5132254;28;20043;-80
2023/09/01 02:20:36;;;;;;;18.80;6.35;;;;;;;20.05;69.33;100871.72;5116379;28;20054;-80
2023/09/01 02:23:28;;;;;;;13.48;5.85;;;;;;;19.98;70.42;100866.88;5128380;28;20039;-80
2023/09/01 02:26:26;;;;;;;10.85;5.20;;;;;;;20.00;70.16;100875.59;5130685;28;20046;-80
2023/09/01 02:29:17;;;;;;;8.48;4.97;;;;;;;20.12;70.27;100874.53;5134746;28;20050;-80
2023/09/01 02:32:11;;;;;;;15.15;6.47;;;;;;;20.16;70.03;100878.16;5118213;28;20047;-80
2023/09/01 02:35:06;;;;;;;10.75;5.22;;;;;;;20.22;70.23;100884.91;5130039;28;20050;-80
2023/09/01 02:38:00;;;;;;;11.25;4.97;;;;;;;19.89;71.35;100884.91;5130228;28;20054;-80
2023/09/01 02:40:56;;;;;;;10.50;5.78;;;;;;;19.87;71.68;100879.75;5129490;28;20046;-81
2023/09/01 02:43:50;;;;;;;7.97;5.20;;;;;;;19.85;72.20;100878.53;5128643;28;20402;-80
2023/09/01 02:46:42;;;;;;;9.90;4.65;;;;;;;19.96;71.20;100874.72;5129988;28;20042;-80
2023/09/01 02:49:34;;;;;;;12.57;6.22;;;;;;;20.06;70.68;100878.81;5115232;28;20121;-80
2023/09/01 02:52:29;;;;;;;8.30;4.95;;;;;;;20.12;69.43;100882.03;5129734;28;20086;-81
2023/09/01 02:55:23;;;;;;;17.05;5.97;;;;;;;19.24;72.68;100882.34;5131227;28;20050;-81
2023/09/01 02:58:18;;;;;;;11.70;5.05;;;;;;;19.78;71.15;100882.00;5129386;28;20047;-80
2023/09/01 03:01:14;;;;;;;6.30;4.75;;;;;;;19.57;71.45;100885.25;5114491;28;20050;-80
2023/09/01 03:04:09;;;;;;;12.18;5.07;;;;;;;19.60;72.03;100892.00;5130153;28;20046;-80
2023/09/01 03:07:03;;;;;;;14.60;5.10;;;;;;;19.66;71.23;100892.47;5128756;28;20047;-80
2023/09/01 03:09:58;;;;;;;14.05;5.07;;;;;;;19.75;70.36;100895.75;5127285;28;20043;-80
2023/09/01 03:12:47;;;;;;;13.13;4.97;;;;;;;19.29;73.18;100895.81;5128039;28;20050;-80
2023/09/01 03:15:40;;;;;;;10.25;5.20;;;;;;;19.55;71.79;100898.63;5115301;28;20671;-81
2023/09/01 03:18:34;;;;;;;8.68;5.25;;;;;;;19.59;71.22;100893.16;5127657;28;20080;-81
2023/09/01 03:21:30;;;;;;;9.35;5.05;;;;;;;19.73;70.51;100889.78;5129080;28;20039;-81
2023/09/01 03:24:23;;;;;;;18.75;5.50;;;;;;;19.68;70.30;100895.63;5131216;28;20055;-81
2023/09/01 03:27:18;;;;;;;11.02;5.35;;;;;;;19.61;70.29;100896.31;5129483;28;20066;-80
2023/09/01 03:30:15;;;;;;;12.18;5.78;;;;;;;19.69;70.60;100894.47;5131295;28;20055;-80
2023/09/01 03:33:08;;;;;;;9.63;5.80;;;;;;;19.73;70.16;100887.03;5129563;28;20051;-80
2023/09/01 03:36:02;;;;;;;9.93;5.57;;;;;;;19.69;70.36;100884.25;5133648;28;20050;-80
2023/09/01 03:38:58;;;;;;;10.50;5.57;;;;;;;19.61;71.12;100885.28;5128519;28;20054;-80
2023/09/01 03:41:51;;;;;;;13.88;5.53;;;;;;;19.69;70.60;100886.19;5128214;28;20043;-81
2023/09/01 03:44:46;;;;;;;11.70;5.82;;;;;;;19.74;70.44;100878.41;5132888;28;20050;-80
2023/09/01 03:47:40;;;;;;;12.10;5.35;;;;;;;19.69;71.16;100886.19;5130015;28;20051;-80
2023/09/01 03:50:36;;;;;;;9.68;5.30;;;;;;;19.68;70.88;100884.59;5130819;28;20047;-81
2023/09/01 03:53:31;;;;;;;13.35;4.93;;;;;;;19.75;70.70;100879.19;5129083;28;20821;-81
2023/09/01 03:56:26;;;;;;;7.90;5.40;;;;;;;19.68;70.64;100887.34;5129546;28;20050;-81
2023/09/01 03:59:20;;;;;;;15.43;7.07;;;;;;;19.48;71.33;100887.47;5132140;28;20093;-81
2023/09/01 04:02:14;;;;;;;12.57;4.93;;;;;;;19.55;71.43;100884.84;5125792;28;20031;-81
2023/09/01 04:05:10;;;;;;;14.00;5.30;;;;;;;19.63;70.82;100889.28;5113421;28;20434;-81
2023/09/01 04:08:04;;;;;;;11.20;5.57;;;;;;;19.62;70.60;100895.97;5107823;28;20047;-82
2023/09/01 04:10:59;;;;;;;20.60;6.40;;;;;;;19.10;72.93;100887.59;5108199;28;20046;-81
2023/09/01 04:13:54;;;;;;;12.25;5.85;;;;;;;18.76;75.18;100890.19;5106843;28;20051;-79
2023/09/01 04:16:50;;;;;;;10.85;5.68;;;;;;;18.79;75.25;100894.19;5120825;28;20043;-80
2023/09/01 04:19:42;;;;;;;8.20;5.93;;;;;;;18.88;74.72;100896.69;5110525;28;20050;-81
2023/09/01 04:22:36;;;;;;;18.70;6.93;;;;;;;19.03;73.83;100904.03;5111122;28;20050;-81
2023/09/01 04:25:31;;;;;;;12.82;5.85;;;;;;;19.00;73.03;100902.00;5107735;28;20047;-80
2023/09/01 04:28:26;;;;;;;15.70;5.95;;;;;;;18.96;73.83;100903.91;5110656;28;20046;-80
2023/09/01 04:31:32;;;;;;;17.85;5.53;;;;;;;19.16;72.52;100913.69;5108386;28;20043;-80
2023/09/01 04:34:26;;;;;;;21.90;6.07;;;;;;;19.42;71.16;100910.19;5119004;28;20414;-81
2023/09/01 04:37:21;;;;;;;18.85;5.93;;;;;;;19.55;70.79;100915.19;5129919;28;20047;-80
2023/09/01 04:40:16;;;;;;;10.60;4.30;;;;;;;19.60;70.52;100912.09;5124483;28;20045;-81
2023/09/01 04:43:08;;;;;;;10.98;3.97;;;;;;;19.52;70.27;100915.91;5134152;28;20038;-81
2023/09/01 04:46:02;;;;;;;9.02;3.90;;;;;;;19.58;70.19;100911.66;5126890;28;20041;-80
2023/09/01 04:48:55;;;;;;;;;;;;;;;19.71;69.48;100922.50;5137095;28;20045;-80
2023/09/01 04:51:50;;;;;;;8.68;3.53;;;;;;;19.73;69.71;100923.72;5128136;28;20374;-80
2023/09/01 04:54:44;;;;;;;14.60;4.80;;;;;;;19.62;70.32;100920.00;5131800;28;20038;-81
2023/09/01 04:57:37;;;;;;;8.75;5.20;;;;;;;19.63;70.31;100916.88;5121783;28;20050;-80
2023/09/01 05:00:31;;;;;;;10.43;5.38;;;;;;;19.62;70.74;100920.78;5117009;28;20054;-80
2023/09/01 05:03:26;;;;;;;6.18;2.85;;;;;;;19.64;71.64;100923.97;5132869;28;20105;-77
2023/09/01 05:06:20;;;;;;;13.77;4.20;;;;;;;20.13;69.91;100922.28;5119445;28;20042;-79
2023/09/01 05:09:15;;;;;;;14.35;3.78;;;;;;;20.47;68.58;100923.91;5109256;28;20055;-82
2023/09/01 05:12:10;;;;;;;13.50;4.03;;;;;;;20.64;68.15;100931.63;5129685;28;20044;-78
2023/09/01 05:15:04;;;;;;;8.63;5.05;;;;;;;20.84;66.52;100932.22;5121689;28;20415;-78
2023/09/01 05:17:59;;;;;;;10.65;3.88;;;;;;;21.04;66.05;100927.28;5121192;28;20043;-79
2023/09/01 05:20:54;;;;;;;14.20;4.70;;;;;;;21.24;65.69;100937.78;5123439;28;20042;-79
2023/09/01 05:23:46;;;;;;;5.43;4.15;;;;;;;21.18;66.03;100947.59;5118385;28;20039;-79
2023/09/01 05:26:40;;;;;;;11.65;4.72;;;;;;;21.02;66.23;100946.25;5120242;27;20063;-78
2023/09/01 05:29:35;;;;;;;7.18;4.68;;;;;;;20.81;67.03;100944.06;5100864;28;20046;-78
2023/09/01 05:32:31;;;;;;;8.20;5.03;;;;;;;20.66;66.69;100943.09;5124908;28;20042;-78
2023/09/01 05:35:26;;;;;;;8.10;6.00;;;;;;;20.51;67.94;100948.84;5127609;28;20046;-78
2023/09/01 05:38:20;;;;;;;10.38;6.68;;;;;;;20.46;68.69;100941.69;5127440;28;20046;-78
2023/09/01 05:41:15;;;;;;;9.23;7.78;;;;;;;20.41;69.28;100939.25;5126345;28;20047;-78
2023/09/01 05:44:09;;;;;;;8.45;6.63;;;;;;;20.42;69.49;100941.63;5128470;28;20054;-78
2023/09/01 05:47:04;;;;;;;7.88;6.97;;;;;;;20.43;70.26;100957.03;5125646;28;20042;-78
2023/09/01 05:49:56;;;;;;;9.07;7.43;;;;;;;20.43;70.41;100959.78;5128722;28;20042;-78
2023/09/01 05:52:51;;;;;;;12.77;7.03;;;;;;;20.53;70.69;100969.38;5127539;28;20043;-78
2023/09/01 05:55:44;;;;;;;13.32;7.55;;;;;;;20.53;71.26;100969.38;5125789;28;20050;-78
2023/09/01 05:58:38;;;;;;;10.60;7.68;;;;;;;20.53;71.33;100968.59;5128300;28;20047;-78
2023/09/01 06:01:35;;;;;;;11.88;7.45;;;;;;;20.58;71.52;100976.53;5125968;28;20402;-78
2023/09/01 06:04:30;;;;;;;10.52;7.53;;;;;;;20.65;71.95;100980.19;5126159;28;20050;-78
2023/09/01 06:07:25;;;;;;;12.02;8.35;;;;;;;20.71;71.89;100981.47;5104868;28;20047;-78
2023/09/01 06:10:17;;;;;;;8.40;6.10;;;;;;;20.96;70.49;100986.47;5107611;28;20533;-78
2023/09/01 06:13:12;;;;;;;10.32;7.53;;;;;;;20.93;71.28;100985.25;5106106;28;20043;-78
2023/09/01 06:16:04;;;;;;;9.50;5.53;;;;;;;21.09;70.45;101005.16;5105968;28;20054;-78
2023/09/01 06:18:59;;;;;;;10.85;7.60;;;;;;;21.11;71.04;101000.06;5108656;28;20055;-78
2023/09/01 06:21:53;;;;;;;6.88;6.13;;;;;;;21.25;70.05;101011.28;5105962;28;20039;-78
2023/09/01 06:24:47;;;;;;;13.77;8.27;;;;;;;21.32;69.71;101011.38;5096566;28;20043;-78
2023/09/01 06:27:42;;;;;;;13.20;8.38;;;;;;;21.32;69.96;101011.38;5106073;28;20063;-78
2023/09/01 06:30:37;;;;;;;9.00;6.38;;;;;;;21.40;70.34;101016.97;5118099;27;20042;-80
2023/09/01 06:33:31;;;;;;;12.55;8.05;;;;;;;21.43;70.36;101007.91;5132593;27;20046;-80
2023/09/01 06:36:23;;;;;;;17.50;7.90;;;;;;;21.53;69.54;101016.31;5136636;27;20042;-79
2023/09/01 06:39:18;;;;;;;10.82;8.05;;;;;;;21.61;69.85;101012.41;5129010;27;20043;-78
2023/09/01 06:42:12;;;;;;;9.18;7.10;;;;;;;21.76;68.81;101021.63;5127226;27;20046;-79
2023/09/01 06:45:04;;;;;;;11.38;7.65;;;;;;;21.89;68.38;101020.13;5118963;28;20109;-79
2023/09/01 06:47:59;;;;;;;14.18;8.55;;;;;;;21.94;68.89;101028.13;5128083;28;20417;-79
2023/09/01 06:50:51;;;;;;;12.70;8.38;;;;;;;22.01;68.00;101024.59;5123798;28;20039;-80
2023/09/01 06:53:46;;;;;;;12.52;7.88;;;;;;;22.17;67.57;101025.91;5120167;28;20172;-80
2023/09/01 06:56:41;;;;;;;10.60;6.40;;;;;;;22.27;66.50;101021.63;5119410;28;20047;-79
2023/09/01 06:59:35;;;;;;;10.27;7.70;;;;;;;22.28;66.10;101025.19;5129437;28;20051;-79
2023/09/01 07:02:30;;;;;;;9.32;7.22;;;;;;;22.42;65.40;101034.38;5121239;28;20042;-78
2023/09/01 07:05:24;;;;;;;14.52;7.63;;;;;;;21.89;66.78;101038.75;5108454;28;20047;-78
2023/09/01 07:08:19;;;;;;;10.85;8.85;;;;;;;22.03;67.59;101036.91;5105855;28;20184;-80
2023/09/01 07:11:14;;;;;;;16.23;8.65;;;;;;;22.16;65.95;101046.47;5110407;28;20047;-80
2023/09/01 07:14:08;;;;;;;16.38;8.18;;;;;;;22.49;65.51;101039.16;5118579;28;20059;-79
2023/09/01 07:17:03;;;;;;;22.35;6.00;;;;;;;22.66;64.47;101035.66;5123349;28;20042;-80
2023/09/01 07:19:57;;;;;;;13.52;7.43;;;;;;;22.75;64.14;101032.59;5104398;28;20529;-80
2023/09/01 07:22:52;;;;;;;10.07;6.43;;;;;;;22.84;63.53;101035.78;5104744;28;20046;-80
2023/09/01 07:25:46;;;;;;;15.82;6.93;;;;;;;22.91;63.07;101050.47;5105853;28;20505;-80
2023/09/01 07:28:39;;;;;;;11.35;7.88;;;;;;;22.95;63.38;101050.50;5118490;28;20051;-80
2023/09/01 07:31:31;;;;;;;7.18;5.25;;;;;;;23.02;62.74;101050.50;5107463;28;20039;-80
2023/09/01 07:34:23;;;;;;;9.43;4.95;;;;;;;23.08;62.89;101056.47;5105187;28;20051;-80
2023/09/01 07:37:18;;;;;;;7.28;5.10;;;;;;;23.18;62.52;101061.25;5121962;28;20047;-80
2023/09/01 07:40:14;;;;;;;11.98;4.88;;;;;;;23.22;62.23;101070.38;5104217;28;20055;-80
2023/09/01 07:43:08;;;;;;;7.22;5.15;;;;;;;23.22;62.31;101067.59;5104553;28;20047;-80
2023/09/01 07:46:03;;;;;;;9.07;4.75;;;;;;;23.25;62.35;101073.19;5106503;28;20047;-79
2023/09/01 07:48:55;;;;;;;;;;;;;;;23.41;61.61;101079.16;5101965;28;20051;-79
2023/09/01 07:51:47;;;;;;;6.60;4.88;;;;;;;23.46;61.20;101066.91;5100107;28;19912;-80
2023/09/01 07:54:42;;;;;;;9.27;6.10;;;;;;;23.43;61.90;101071.22;5103564;28;20485;-80
2023/09/01 07:57:37;;;;;;;17.25;5.32;;;;;;;23.53;61.46;101068.88;5101872;28;20055;-79
2023/09/01 08:00:31;;;;;;;13.68;5.93;;;;;;;23.54;61.50;101071.25;5100721;28;20058;-79
2023/09/01 08:03:26;;;;;;;12.15;7.53;;;;;;;23.60;61.44;101082.78;5111934;28;20042;-80
2023/09/01 08:06:21;;;;;;;8.15;4.47;;;;;;;23.67;61.06;101085.56;5125482;28;20415;-79
2023/09/01 08:09:16;;;;;;;9.57;5.22;;;;;;;23.75;60.41;101087.97;5121499;28;20509;-80
2023/09/01 08:12:08;;;;;;;;;;;;;;;23.79;60.11;101083.19;5121013;28;20047;-79
2023/09/01 08:15:02;;;;;;;12.98;5.82;;;;;;;23.84;59.86;101088.34;5119982;28;19915;-80
2023/09/01 08:17:57;;;;;;;7.47;4.20;;;;;;;23.83;59.79;101089.53;5106054;28;20082;-79
2023/09/01 08:20:51;;;;;;;8.48;5.13;;;;;;;23.92;59.71;101089.16;5111256;28;20051;-79
2023/09/01 08:23:46;;;;;;;10.35;6.15;;;;;;;23.97;59.46;101090.75;5121019;28;20039;-80
2023/09/01 08:26:42;;;;;;;7.05;3.78;;;;;;;24.04;58.76;101087.94;5120689;28;20067;-79
2023/09/01 08:29:37;;;;;;;5.85;3.85;;;;;;;24.07;58.80;101093.53;5124889;28;20047;-80
2023/09/01 08:32:29;;;;;;;7.70;4.45;;;;;;;24.12;58.79;101089.56;5121574;28;20055;-79
2023/09/01 08:35:23;;;;;;;10.73;5.60;;;;;;;24.08;59.13;101091.50;5125137;28;20057;-80
2023/09/01 08:38:18;;;;;;;11.25;6.13;;;;;;;24.10;59.01;101097.47;5123474;28;20062;-80
2023/09/01 08:41:12;;;;;;;8.35;5.15;;;;;;;24.20;58.84;101099.50;5119523;28;20043;-80
2023/09/01 08:44:09;;;;;;;12.55;8.13;;;;;;;24.28;58.91;101098.28;5120539;28;20039;-79
2023/09/01 08:47:05;;;;;;;7.20;3.65;;;;;;;24.36;57.77;101097.09;5119812;28;20046;-79
2023/09/01 08:49:58;;;;;;;5.43;3.47;;;;;;;24.41;57.52;101099.47;5109051;28;20047;-79
2023/09/01 08:52:53;;;;;;;5.95;3.10;;;;;;;24.41;57.28;101102.25;5121163;28;20047;-80
2023/09/01 08:55:45;;;;;;;;;;;;;;;24.44;57.43;101106.19;5121557;28;20055;-79
2023/09/01 08:58:40;;;;;;;7.53;5.65;;;;;;;24.43;57.59;101113.75;5120693;28;19915;-80
2023/09/01 09:01:32;;;;;;;7.65;5.50;;;;;;;24.51;57.23;101112.56;5117924;28;20058;-79
2023/09/01 09:04:27;;;;;;;10.07;6.28;;;;;;;24.71;56.56;101110.91;5120603;28;20039;-79
2023/09/01 09:07:20;;;;;;;;;;;;;;;24.82;56.38;101108.09;5127173;28;20051;-80
2023/09/01 09:10:15;;;;;;;10.15;5.90;;;;;;;24.76;56.04;101112.47;5109307;28;19912;-81
2023/09/01 09:13:25;;;;;;;12.70;4.03;;;;;;;24.79;55.53;101111.66;5119190;28;20039;-81
2023/09/01 09:16:21;;;;;;;6.55;2.90;;;;;;;24.83;55.45;101117.25;5123115;28;20047;-80
2023/09/01 09:19:18;;;;;;;18.48;6.20;;;;;;;24.59;56.43;101105.75;5127005;28;20054;-80
2023/09/01 09:22:14;;;;;;;11.85;4.05;;;;;;;24.61;56.56;101111.72;5126240;27;20050;-80
2023/09/01 09:25:24;;;;;;;10.73;4.32;;;;;;;24.55;56.80;101110.56;5120529;28;20036;-81
2023/09/01 09:28:19;;;;;;;11.15;5.95;;;;;;;24.77;56.01;101102.16;5123681;28;20038;-82
2023/09/01 09:31:13;;;;;;;11.30;5.57;;;;;;;24.92;54.57;101103.72;5106475;28;20047;-85
2023/09/01 09:34:19;;;;;;;11.30;4.60;;;;;;;25.02;54.74;101100.91;5114552;28;20043;-88
2023/09/01 09:37:21;;;;;;;13.18;4.97;;;;;;;24.91;54.77;101102.13;5129015;28;20054;-86
2023/09/01 09:40:17;;;;;;;6.18;4.43;;;;;;;25.06;53.80;101106.44;5103070;28;20043;-88
2023/09/01 09:43:12;;;;;;;10.25;5.50;;;;;;;25.12;54.23;101110.38;5116589;28;20050;-88
2023/09/01 09:46:05;;;;;;;11.48;2.70;;;;;;;25.09;53.95;101105.66;5115284;28;20050;-87
2023/09/01 09:48:58;;;;;;;7.80;4.45;;;;;;;25.18;53.70;101107.97;5115364;28;20047;-86
2023/09/01 09:51:54;;;;;;;7.40;4.05;;;;;;;25.25;53.01;101100.38;5110168;28;20047;-82
2023/09/01 09:54:50;;;;;;;8.20;3.97;;;;;;;29.88;43.41;101122.03;5129919;27;20042;-86
2023/09/01 09:57:45;;;;;;;7.85;4.40;;;;;;;36.72;30.05;101124.72;5152568;27;20049;-83
2023/09/01 10:00:51;;;;;;;8.55;4.03;;;;;;;39.91;24.08;101128.28;5152535;27;20049;-82
2023/09/01 10:03:41;;;;;;;9.88;3.65;;;;;;;41.58;22.60;101137.28;5146426;27;20039;-81
2023/09/01 10:06:37;;;;;;;10.10;4.05;;;;;;;40.99;23.07;101138.28;5136397;27;20608;-83
2023/09/01 10:09:32;;;;;;;4.07;2.35;;;;;;;44.27;19.32;101132.88;5127877;28;20043;-82
2023/09/01 10:12:29;;;;;;;5.00;2.47;;;;;;;44.78;18.13;101138.69;5116228;28;20051;-81
2023/09/01 10:15:24;;;;;;;6.85;3.72;;;;;;;43.63;19.60;101129.69;5111360;27;20054;-82
2023/09/01 10:18:20;;;;;;;6.43;3.67;;;;;;;42.19;20.74;101117.88;5115913;28;20039;-85
2023/09/01 10:21:15;;;;;;;5.68;2.38;;;;;;;46.16;16.65;101135.47;5114016;27;20042;-85
2023/09/01 10:24:13;;;;;;;6.50;3.00;;;;;;;42.12;20.19;101114.78;5118844;28;20047;-87
2023/09/01 10:27:12;;;;;;;9.27;2.72;;;;;;;42.13;19.93;101122.84;5124918;27;20038;-83
2023/09/01 10:30:24;;;;;;;27.52;4.43;;;;;;;44.53;18.59;101120.78;5112364;27;20504;-83
2023/09/01 10:33:24;;;;;;;10.90;3.08;;;;;;;44.59;17.57;101107.91;5124848;27;20035;-84
2023/09/01 10:36:17;;;;;;;5.55;2.08;;;;;;;46.54;16.04;101117.91;5114866;27;20070;-83
2023/09/01 10:39:31;;;;;;;7.25;2.10;;;;;;;46.52;15.80;101109.06;5107738;28;20047;-83
2023/09/01 10:42:38;;;;;;;7.60;1.50;;;;;;;45.62;16.81;101100.75;5114359;28;20043;-83
2023/09/01 10:45:33;;;;;;;9.27;2.95;;;;;;;46.59;15.55;101102.63;5109126;28;20047;-82
2023/09/01 10:48:54;;;;;;;5.18;1.80;;;;;;;48.55;13.71;101096.72;5108840;28;20054;-83
2023/09/01 10:51:49;;;;;;;4.45;1.80;;;;;;;46.94;15.41;101095.53;5097189;28;20067;-82
2023/09/01 10:54:40;;;;;;;6.63;2.58;;;;;;;40.06;21.40;101080.44;5095936;28;20051;-82
2023/09/01 10:57:47;;;;;;;10.90;3.72;;;;;;;34.47;28.77;101062.50;5111931;28;20046;-82
2023/09/01 11:00:42;;;;;;;3.53;1.90;;;;;;;31.88;33.70;101059.75;5105449;28;20059;-81
2023/09/01 11:03:36;;;;;;;5.65;2.38;;;;;;;30.77;36.46;101053.16;5098442;28;20043;-81
2023/09/01 11:06:49;;;;;;;5.97;1.90;;;;;;;28.70;40.91;101047.41;5103429;28;20046;-81
2023/09/01 11:09:38;;;;;;;20.20;2.97;;;;;;;28.12;42.65;101046.94;5117653;28;20063;-82
2023/09/01 11:12:32;;;;;;;3.30;2.00;;;;;;;36.78;27.62;101057.53;5105238;28;20126;-83
2023/09/01 11:15:26;;;;;;;4.40;1.83;;;;;;;42.39;19.87;101075.97;5110986;28;20038;-84
2023/09/01 11:18:27;;;;;;;3.45;2.22;;;;;;;44.03;17.81;101072.69;5103804;28;20047;-83
2023/09/01 11:21:25;;;;;;;10.68;1.80;;;;;;;45.75;16.78;101083.47;5111866;28;20043;-85
2023/09/01 11:24:21;;;;;;;3.75;1.75;;;;;;;46.03;16.07;101088.66;5107844;28;20039;-84
2023/09/01 11:27:16;;;;;;;5.40;1.30;;;;;;;45.97;15.93;101074.41;5100748;28;20050;-83
2023/09/01 11:30:09;;;;;;;5.13;1.52;;;;;;;46.83;15.36;101073.50;5111535;28;20050;-84
2023/09/01 11:33:13;;;;;;;5.45;2.17;;;;;;;46.45;15.17;101078.06;5110392;27;20051;-83
2023/09/01 11:36:14;;;;;;;3.90;1.88;;;;;;;42.28;18.00;101062.50;5112131;28;20417;-82
2023/09/01 11:39:11;;;;;;;9.95;2.88;;;;;;;38.32;22.81;101046.16;5117639;27;20047;-84
2023/09/01 11:42:06;;;;;;;5.13;1.83;;;;;;;34.26;29.02;101046.50;5107173;28;20043;-86
2023/09/01 11:45:00;;;;;;;5.55;1.77;;;;;;;32.39;31.50;101030.22;5114901;27;20042;-84
2023/09/01 11:47:58;;;;;;;4.95;1.98;;;;;;;31.67;33.08;101028.28;5101813;28;20046;-83
2023/09/01 11:50:53;;;;;;;3.83;1.55;;;;;;;31.09;34.71;101027.72;5104133;28;20038;-83
2023/09/01 11:53:53;;;;;;;6.38;1.52;;;;;;;30.37;36.91;101016.97;5115641;28;20043;-84
2023/09/01 11:56:46;;;;;;;6.22;2.13;;;;;;;29.87;38.37;101011.88;5104918;28;20035;-83
2023/09/01 11:59:47;;;;;;;4.90;1.52;;;;;;;29.57;39.24;101012.25;5122444;28;20051;-85
2023/09/01 12:02:44;;;;;;;6.47;1.85;;;;;;;30.43;38.32;101017.19;5116347;28;20039;-84
2023/09/01 12:05:43;;;;;;;7.78;2.20;;;;;;;31.58;35.53;101016.16;5096987;28;20051;-84
2023/09/01 12:08:37;;;;;;;8.50;3.03;;;;;;;32.69;33.77;101023.09;5118134;28;20063;-84
2023/09/01 12:11:29;;;;;;;8.27;2.58;;;;;;;34.34;31.28;101016.69;5113539;28;20051;-86
2023/09/01 12:14:48;;;;;;;5.65;2.25;;;;;;;38.88;24.53;101030.47;5116872;28;20042;-84
2023/09/01 12:17:40;;;;;;;6.85;2.10;;;;;;;43.11;19.25;101040.34;5116584;28;20046;-83
2023/09/01 12:20:38;;;;;;;11.77;2.47;;;;;;;45.24;17.19;101052.03;5116502;28;20050;-83
2023/09/01 12:23:34;;;;;;;10.60;1.25;;;;;;;47.35;15.03;101039.94;5116131;28;20039;-83
2023/09/01 12:26:29;;;;;;;5.55;1.48;;;;;;;46.22;15.36;101034.66;5118797;28;20537;-83
2023/09/01 12:29:23;;;;;;;10.18;2.03;;;;;;;42.31;18.93;101032.09;5116945;28;20046;-83
2023/09/01 12:32:18;;;;;;;3.72;1.63;;;;;;;39.52;21.62;101029.13;5117251;28;20042;-82
2023/09/01 12:35:08;;;;;;;8.52;2.25;;;;;;;41.83;19.36;101021.88;5118537;28;20066;-83
2023/09/01 12:38:03;;;;;;;3.58;1.98;;;;;;;36.50;24.50;101019.41;5110108;28;20039;-83
2023/09/01 12:40:58;;;;;;;3.38;1.40;;;;;;;37.66;24.43;101020.53;5108137;28;20051;-84
2023/09/01 12:43:52;;;;;;;6.07;1.60;;;;;;;42.81;18.56;101029.66;5129980;28;20517;-84
2023/09/01 12:46:47;;;;;;;5.55;1.55;;;;;;;45.24;16.31;101031.94;5118187;28;20046;-84
2023/09/01 12:49:43;;;;;;;6.32;1.40;;;;;;;43.86;17.14;101021.25;5112787;28;20051;-85
2023/09/01 12:52:50;;;;;;;4.93;1.63;;;;;;;44.87;16.57;101023.44;5106550;28;20039;-86
2023/09/01 12:55:45;;;;;;;6.20;1.48;;;;;;;44.04;17.21;101014.81;5113799;28;20418;-85
2023/09/01 12:58:37;;;;;;;42.47;4.78;;;;;;;43.91;17.45;101011.84;5124138;28;20050;-85
2023/09/01 13:01:31;;;;;;;12.98;1.92;;;;;;;43.92;17.31;101015.47;5125908;28;20047;-87
2023/09/01 13:04:26;;;;;;;8.52;1.80;;;;;;;42.04;18.85;101003.09;5117378;28;20054;-84
2023/09/01 13:07:20;;;;;;;10.15;1.67;;;;;;;42.41;18.68;101002.63;5131185;28;20070;-83
2023/09/01 13:10:14;;;;;;;7.47;1.33;;;;;;;40.64;20.17;101004.66;5105286;28;20126;-83
2023/09/01 13:13:06;;;;;;;4.72;1.20;;;;;;;37.89;23.70;101002.53;5118698;28;20043;-84
2023/09/01 13:15:58;;;;;;;4.57;1.17;;;;;;;36.19;25.79;100995.13;5125498;27;20042;-84
2023/09/01 13:18:50;;;;;;;3.80;1.40;;;;;;;34.08;28.92;100984.38;5109356;28;20047;-83
2023/09/01 13:21:42;;;;;;;14.57;1.55;;;;;;;33.69;29.44;100986.06;5107585;28;20055;-81
2023/09/01 13:24:34;;;;;;;9.93;1.88;;;;;;;34.03;29.36;100990.66;5105089;28;20034;-86
2023/09/01 13:27:26;;;;;;;20.25;2.88;;;;;;;34.27;29.53;100980.31;5102227;28;20050;-80
2023/09/01 13:30:19;;;;;;;16.80;3.25;;;;;;;34.21;29.87;100993.50;5103856;28;20114;-79
2023/09/01 13:33:13;;;;;;;16.50;1.63;;;;;;;33.60;30.21;100994.50;5111525;28;20047;-79